Time;durP1;ratioP1;P1;durP2;ratioP2;P2;SDS_P1;SDS_P2;PMS_P1;PMS_P2;Temp;Humidity;BMP_temperature;BMP_pressure;BME280_temperature;BME280_humidity;BME280_pressure;Samples;Min_cycle;Max_cycle;Signal;HPM_P1;HPM_P2
2023/07/20 04:16:33;;;;;;;1.75;1.75;;;;;;;;;;5134340;23;20227;-69
2023/07/20 04:19:00;;;;;;;1.73;1.70;;;;;;;;;;4995648;28;20214;-69
2023/07/20 04:21:29;;;;;;;1.98;1.98;;;;;;;;;;4996103;28;20213;-69
2023/07/20 04:23:56;;;;;;;2.20;2.10;;;;;;;;;;4995420;28;20210;-68
2023/07/20 04:26:24;;;;;;;1.80;1.70;;;;;;;;;;4995322;28;20218;-68
2023/07/20 04:28:52;;;;;;;1.70;1.70;;;;;;;;;;4995288;28;20229;-68
2023/07/20 04:31:19;;;;;;;1.70;1.70;;;;;;;;;;4995304;28;20290;-70
2023/07/20 04:33:48;;;;;;;2.30;1.85;;;;;;;;;;4995245;28;20213;-68
2023/07/20 04:36:19;;;;;;;2.17;1.98;;;;;;;;;;4995053;28;20222;-68
2023/07/20 04:38:46;;;;;;;1.80;1.80;;;;;;;;;;4995233;28;20187;-68
2023/07/20 04:41:13;;;;;;;1.80;1.70;;;;;;;;;;4995104;28;20203;-68
2023/07/20 04:43:42;;;;;;;1.75;1.67;;;;;;;;;;4995089;28;20210;-68
2023/07/20 04:46:09;;;;;;;1.80;1.70;;;;;;;;;;4995005;28;20253;-69
2023/07/20 04:48:36;;;;;;;2.10;2.00;;;;;;;;;;4995371;28;20370;-71
2023/07/20 04:51:05;;;;;;;1.60;1.60;;;;;;;;;;4994738;28;20209;-70
2023/07/20 04:53:32;;;;;;;1.70;1.60;;;;;;;;;;4994955;28;20214;-70
2023/07/20 04:55:59;;;;;;;2.25;1.63;;;;;;;;;;4994922;28;20226;-70
2023/07/20 04:58:26;;;;;;;1.67;1.67;;;;;;;;;;4997540;28;20202;-69
2023/07/20 05:00:53;;;;;;;1.77;1.67;;;;;;;;;;5014555;28;20186;-69
2023/07/20 05:03:20;;;;;;;1.90;1.80;;;;;;;;;;5016011;28;20186;-69
2023/07/20 05:05:48;;;;;;;1.90;1.80;;;;;;;;;;5007279;28;20230;-70
2023/07/20 05:08:17;;;;;;;1.38;1.38;;;;;;;;;;4994392;28;20669;-69
2023/07/20 05:10:44;;;;;;;1.77;1.67;;;;;;;;;;4995027;28;20241;-70
2023/07/20 05:13:11;;;;;;;1.60;1.60;;;;;;;;;;4994523;28;20205;-70
2023/07/20 05:15:38;;;;;;;1.80;1.70;;;;;;;;;;4994438;28;20226;-72
2023/07/20 05:18:05;;;;;;;1.30;1.30;;;;;;;;;;4994281;28;20316;-71
2023/07/20 05:20:33;;;;;;;1.92;1.45;;;;;;;;;;4994472;28;20206;-70
2023/07/20 05:23:00;;;;;;;1.58;1.58;;;;;;;;;;4994493;28;20238;-70
2023/07/20 05:25:29;;;;;;;1.77;1.67;;;;;;;;;;4993994;28;20604;-70
2023/07/20 05:27:56;;;;;;;1.58;1.58;;;;;;;;;;4994387;28;20206;-70
2023/07/20 05:30:23;;;;;;;1.90;1.80;;;;;;;;;;4994886;28;20537;-70
2023/07/20 05:32:52;;;;;;;1.73;1.63;;;;;;;;;;4995900;28;20202;-70
2023/07/20 05:35:19;;;;;;;1.58;1.58;;;;;;;;;;4994982;28;20222;-70
2023/07/20 05:37:46;;;;;;;1.45;1.45;;;;;;;;;;4993862;28;20218;-70
2023/07/20 05:40:14;;;;;;;1.73;1.63;;;;;;;;;;4993846;28;20573;-70
2023/07/20 05:42:43;;;;;;;1.50;1.50;;;;;;;;;;4994240;28;20233;-70
2023/07/20 05:45:10;;;;;;;1.70;1.70;;;;;;;;;;4993842;28;20709;-70
2023/07/20 05:47:37;;;;;;;1.65;1.55;;;;;;;;;;4994209;28;20206;-70
2023/07/20 05:50:04;;;;;;;2.00;1.90;;;;;;;;;;4994169;28;20286;-70
2023/07/20 05:52:31;;;;;;;2.13;2.08;;;;;;;;;;4994145;28;20203;-70
2023/07/20 05:54:58;;;;;;;1.80;1.70;;;;;;;;;;4994039;28;20222;-70
2023/07/20 05:57:25;;;;;;;2.17;2.08;;;;;;;;;;4994032;28;20222;-70
2023/07/20 05:59:54;;;;;;;2.00;1.90;;;;;;;;;;4994049;28;20210;-70
2023/07/20 06:02:21;;;;;;;1.73;1.63;;;;;;;;;;4994104;28;20230;-70
2023/07/20 06:04:48;;;;;;;2.00;1.90;;;;;;;;;;4993627;28;20728;-70
2023/07/20 06:07:15;;;;;;;1.75;1.73;;;;;;;;;;4994122;28;20227;-70
2023/07/20 06:09:42;;;;;;;1.75;1.65;;;;;;;;;;4994332;28;20202;-70
2023/07/20 06:12:10;;;;;;;1.50;1.50;;;;;;;;;;4994328;28;20209;-70
2023/07/20 06:14:38;;;;;;;1.77;1.67;;;;;;;;;;4993973;28;20229;-70
2023/07/20 06:17:07;;;;;;;1.48;1.48;;;;;;;;;;4993379;28;20693;-70
2023/07/20 06:19:34;;;;;;;1.40;1.40;;;;;;;;;;4994182;28;20193;-70
2023/07/20 06:22:01;;;;;;;1.50;1.50;;;;;;;;;;4997135;28;20681;-70
2023/07/20 06:24:28;;;;;;;1.80;1.70;;;;;;;;;;4997616;28;20202;-70
2023/07/20 06:26:55;;;;;;;1.55;1.50;;;;;;;;;;4997598;28;20198;-70
2023/07/20 06:29:22;;;;;;;1.85;1.75;;;;;;;;;;4997594;28;20205;-70
2023/07/20 06:31:49;;;;;;;1.65;1.63;;;;;;;;;;4997862;28;20225;-70
2023/07/20 06:34:18;;;;;;;2.30;2.20;;;;;;;;;;4997482;28;20206;-70
2023/07/20 06:36:45;;;;;;;2.08;1.98;;;;;;;;;;4997301;28;20233;-70
2023/07/20 06:39:12;;;;;;;2.30;2.10;;;;;;;;;;4997431;28;20229;-70
2023/07/20 06:41:39;;;;;;;3.10;2.10;;;;;;;;;;4997010;28;20673;-70
2023/07/20 06:44:06;;;;;;;1.90;1.80;;;;;;;;;;4997333;28;20209;-70
2023/07/20 06:46:33;;;;;;;2.00;1.90;;;;;;;;;;4997680;28;20585;-70
2023/07/20 06:49:00;;;;;;;1.83;1.73;;;;;;;;;;4997786;28;20688;-71
2023/07/20 06:51:28;;;;;;;2.35;1.73;;;;;;;;;;4997418;28;20202;-70
2023/07/20 06:53:55;;;;;;;2.20;1.48;;;;;;;;;;4997211;28;20206;-70
2023/07/20 06:56:22;;;;;;;1.67;1.58;;;;;;;;;;4997031;28;20222;-70
2023/07/20 06:58:49;;;;;;;1.75;1.65;;;;;;;;;;4997228;28;20716;-70
2023/07/20 07:01:16;;;;;;;4.50;1.88;;;;;;;;;;4997201;28;20202;-70
2023/07/20 07:03:45;;;;;;;1.50;1.38;;;;;;;;;;4997993;28;20206;-70
2023/07/20 07:06:12;;;;;;;2.20;1.67;;;;;;;;;;4998469;28;20226;-70
2023/07/20 07:08:41;;;;;;;1.92;1.80;;;;;;;;;;4999263;28;20206;-70
2023/07/20 07:11:09;;;;;;;1.80;1.42;;;;;;;;;;4998694;28;20297;-70
2023/07/20 07:13:36;;;;;;;1.35;1.35;;;;;;;;;;4998169;28;20206;-70
2023/07/20 07:16:03;;;;;;;1.45;1.45;;;;;;;;;;4998978;28;20308;-71
2023/07/20 07:18:30;;;;;;;1.20;1.20;;;;;;;;;;4997850;28;20257;-71
2023/07/20 07:20:58;;;;;;;1.92;1.60;;;;;;;;;;4996642;28;20682;-70
2023/07/20 07:23:25;;;;;;;1.50;1.40;;;;;;;;;;4997410;28;20236;-70
2023/07/20 07:25:53;;;;;;;2.40;1.48;;;;;;;;;;4996456;28;20225;-69
2023/07/20 07:28:20;;;;;;;1.60;1.50;;;;;;;;;;4996447;28;20546;-69
2023/07/20 07:30:47;;;;;;;2.05;1.45;;;;;;;;;;4995876;28;20209;-69
2023/07/20 07:33:14;;;;;;;2.08;1.33;;;;;;;;;;4996412;28;20198;-69
2023/07/20 07:35:55;;;;;;;1.80;1.55;;;;;;;;;;4995935;28;20775;-70
2023/07/20 07:38:23;;;;;;;1.40;1.30;;;;;;;;;;4996266;28;20216;-69
2023/07/20 07:40:53;;;;;;;4.72;1.70;;;;;;;;;;4996252;28;20206;-69
2023/07/20 07:43:22;;;;;;;1.23;1.20;;;;;;;;;;4996435;28;20206;-69
2023/07/20 07:45:50;;;;;;;2.78;1.45;;;;;;;;;;4996014;28;20222;-69
2023/07/20 07:48:20;;;;;;;0.90;0.90;;;;;;;;;;4996241;28;20209;-69
2023/07/20 07:50:47;;;;;;;1.17;1.17;;;30.20;67.90;;;;;;4996509;28;20202;-69
2023/07/20 07:53:15;;;;;;;1.35;1.15;;;;;;;;;;4996436;28;20206;-69
2023/07/20 07:55:43;;;;;;;1.73;1.40;;;;;;;;;;4996387;28;20221;-70
2023/07/20 07:58:10;;;;;;;1.52;1.08;;;;;;;;;;4996032;28;20313;-70
2023/07/20 08:00:38;;;;;;;1.90;1.13;;;33.20;63.00;;;;;;4996110;28;20277;-70
2023/07/20 08:03:07;;;;;;;0.95;0.95;;;34.30;61.00;;;;;;4995879;28;20210;-70
2023/07/20 08:05:35;;;;;;;1.30;1.30;;;;;;;;;;4995987;28;20222;-70
2023/07/20 08:08:03;;;;;;;1.25;1.23;;;;;;;;;;4995849;28;20253;-70
2023/07/20 08:10:30;;;;;;;0.85;0.85;;;;;;;;;;4995796;28;20190;-70
2023/07/20 08:12:57;;;;;;;0.90;0.90;;;;;;;;;;4995707;28;20206;-70
2023/07/20 08:15:25;;;;;;;0.90;0.90;;;;;;;;;;4995270;28;20717;-70
2023/07/20 08:17:53;;;;;;;1.48;1.38;;;;;;;;;;4995521;28;20567;-70
2023/07/20 08:20:26;;;;;;;1.02;1.02;;;;;;;;;;4995526;28;20261;-70
2023/07/20 08:22:54;;;;;;;1.17;1.02;;;;;;;;;;4995558;28;20647;-70
2023/07/20 08:25:22;;;;;;;1.05;1.05;;;;;;;;;;4995773;28;20218;-70
2023/07/20 08:27:49;;;;;;;1.55;1.25;;;;;;;;;;4995093;28;20294;-71
2023/07/20 08:30:17;;;;;;;1.23;1.23;;;;;;;;;;4995520;28;20292;-71
2023/07/20 08:32:44;;;;;;;1.27;1.17;;;;;;;;;;4995340;28;20203;-70
2023/07/20 08:35:12;;;;;;;1.30;1.20;;;;;;;;;;4995343;28;20225;-70
2023/07/20 08:37:39;;;;;;;5.70;2.30;;;;;;;;;;4995360;28;20217;-70
2023/07/20 08:40:09;;;;;;;2.50;1.50;;;;;;;;;;4995137;28;20217;-70
2023/07/20 08:42:36;;;;;;;1.55;1.45;;;;;;;;;;4994694;28;20198;-70
2023/07/20 08:45:05;;;;;;;2.83;1.50;;;;;;;;;;4994888;28;20230;-70
2023/07/20 08:47:32;;;;;;;1.48;1.35;;;;;;;;;;4994716;28;20213;-70
2023/07/20 08:50:01;;;;;;;1.63;1.50;;;;;;;;;;4995017;28;20202;-70
2023/07/20 08:52:30;;;;;;;1.20;1.20;;;;;;;;;;4994993;28;20225;-70
2023/07/20 08:54:57;;;;;;;1.10;1.02;;;;;;;;;;4994819;28;20228;-70
2023/07/20 08:57:24;;;;;;;1.65;1.30;;;;;;;;;;4994381;28;20693;-70
2023/07/20 08:59:52;;;;;;;1.30;1.20;;;;;;;;;;4995304;28;20218;-70
2023/07/20 09:02:23;;;;;;;1.20;1.20;;;;;;;;;;4994737;28;20391;-70
2023/07/20 09:04:57;;;;;;;1.67;1.20;;;;;;;;;;4994378;28;20705;-70
2023/07/20 09:07:25;;;;;;;1.38;1.38;;;;;;;;;;4994846;28;20190;-71
2023/07/20 09:09:53;;;;;;;1.77;1.35;;;;;;;;;;4994499;28;20209;-70
2023/07/20 09:12:20;;;;;;;1.75;1.63;;;;;;;;;;4994968;28;20231;-70
2023/07/20 09:14:48;;;;;;;5.63;2.42;;;;;;;;;;4994652;28;20228;-71
2023/07/20 09:17:19;;;;;;;1.58;1.48;;;;;;;;;;4994495;28;20210;-69
2023/07/20 09:19:54;;;;;;;1.83;1.73;;;;;;;;;;4994181;28;20752;-69
2023/07/20 09:22:24;;;;;;;1.50;1.40;;;;;;;;;;4994448;28;20186;-69
2023/07/20 09:24:56;;;;;;;1.13;1.13;;;;;;;;;;4994383;28;20222;-70
2023/07/20 09:27:33;;;;;;;1.40;1.30;;;;;;;;;;4994130;28;20208;-69
2023/07/20 09:30:07;;;;;;;1.55;1.48;;;;;;;;;;4994439;28;20182;-69
2023/07/20 09:33:25;;;;;;;1.40;1.40;;;;;;;;;;4994394;28;20197;-69
2023/07/20 09:36:27;;;;;;;1.75;1.33;;;;;;;;;;4994472;28;20225;-69
2023/07/20 09:39:20;;;;;;;1.33;1.20;;;;;;;;;;4994395;28;20196;-69
2023/07/20 09:41:57;;;;;;;1.25;1.25;;;;;;;;;;4994297;28;20226;-70
2023/07/20 09:44:37;;;;;;;1.10;1.10;;;;;;;;;;4994521;28;20197;-69
2023/07/20 09:47:15;;;;;;;1.00;1.00;;;;;;;;;;4995565;28;20591;-70
2023/07/20 09:49:47;;;;;;;0.80;0.80;;;;;;;;;;4996943;28;20201;-69
2023/07/20 09:52:22;;;;;;;0.93;0.93;;;;;;;;;;4996724;28;20187;-69
2023/07/20 09:54:59;;;;;;;1.00;1.00;;;;;;;;;;4996607;28;20221;-70
2023/07/20 09:57:39;;;;;;;1.20;1.20;;;;;;;;;;4999507;28;20186;-71
2023/07/20 10:00:22;;;;;;;1.48;1.10;;;;;;;;;;4999329;28;20248;-71
2023/07/20 10:03:07;;;;;;;1.25;1.00;;;;;;;;;;4999081;28;20217;-71
2023/07/20 10:05:57;;;;;;;0.93;0.93;;;;;;;;;;4998629;28;20226;-71
2023/07/20 10:08:49;;;;;;;1.30;1.30;;;;;;;;;;4999543;28;20221;-70
2023/07/20 10:12:00;;;;;;;2.05;1.40;;;;;;;;;;4999804;28;20190;-71
2023/07/20 10:15:13;;;;;;;2.72;1.90;;;;;;;;;;4998527;28;20198;-70
2023/07/20 10:17:49;;;;;;;3.05;1.77;;;;;;;;;;5000757;28;20667;-70
2023/07/20 10:21:03;;;;;;;1.60;1.48;;;;;;;;;;5000437;28;20688;-70
2023/07/20 10:23:31;;;;;;;1.45;1.35;;;;;;;;;;5002275;28;20202;-70
2023/07/20 10:26:43;;;;;;;1.20;1.10;;;;;;;;;;5001730;28;20325;-70
2023/07/20 10:29:57;;;;;;;2.40;1.60;;;;;;;;;;5001311;28;20296;-70
2023/07/20 10:33:09;;;;;;;1.65;1.55;;;;;;;;;;5000976;28;20609;-70
2023/07/20 10:36:36;;;;;;;1.38;1.30;;;;;;;;;;5001197;28;20701;-70
2023/07/20 10:39:50;;;;;;;1.30;1.30;;;;;;;;;;5001363;28;20666;-70
2023/07/20 10:42:17;;;;;;;3.00;1.50;;;;;;;;;;5003517;28;20206;-70
2023/07/20 10:45:30;;;;;;;1.40;1.40;;;;;;;;;;5005551;28;20202;-71
2023/07/20 10:48:41;;;;;;;1.52;1.42;;;;;;;;;;5006145;28;20198;-71
2023/07/20 10:51:57;;;;;;;1.40;1.30;;;;;;;;;;5002114;28;20206;-71
2023/07/20 10:55:32;;;;;;;1.58;1.48;;;;;;;;;;5001100;28;20198;-71
2023/07/20 10:58:54;;;;;;;1.33;1.23;;;;;;;;;;4999650;28;20213;-69
2023/07/20 11:02:05;;;;;;;1.05;1.05;;;;;;;;;;5004147;28;20206;-71
2023/07/20 11:05:24;;;;;;;1.55;1.55;;;;;;;;;;5001589;28;20202;-71
2023/07/20 11:08:35;;;;;;;2.15;1.25;;;;;;;;;;5001326;28;20209;-71
2023/07/20 11:12:01;;;;;;;1.50;1.40;;;;;;;;;;4997196;28;20210;-72
2023/07/20 11:15:14;;;;;;;1.50;1.40;;;;;;;;;;4996694;28;20224;-72
2023/07/20 11:18:26;;;;;;;1.40;1.30;;;;;;;;;;4996440;28;20214;-71
2023/07/20 11:21:27;;;;;;;1.50;1.40;;;;;;;;;;4996766;28;20225;-70
2023/07/20 11:23:54;;;;;;;1.40;1.30;;;;;;;;;;4996685;28;20194;-69
2023/07/20 11:27:08;;;;;;;1.60;1.50;;;;;;;;;;4996946;28;20218;-68
2023/07/20 11:29:37;;;;;;;1.20;1.20;;;;;;;;;;4996436;28;20214;-69
2023/07/20 11:32:50;;;;;;;1.00;1.00;;;;;;;;;;4996127;28;20202;-70
2023/07/20 11:36:05;;;;;;;3.08;1.10;;;;;;;;;;4996815;28;20226;-70
2023/07/20 11:38:32;;;;;;;1.00;1.00;;;;;;;;;;4996181;28;20702;-70
2023/07/20 11:41:43;;;;;;;1.25;1.20;;;;;;;;;;4996308;28;20670;-70
2023/07/20 11:45:00;;;;;;;0.82;0.82;;;;;;;;;;4996463;28;20209;-70
2023/07/20 11:47:37;;;;;;;0.90;0.90;;;;;;;;;;4996463;28;20651;-70
2023/07/20 11:50:05;;;;;;;1.23;1.23;;;;;;;;;;4996358;28;20191;-70
2023/07/20 11:53:16;;;;;;;1.30;1.20;;;;;;;;;;4996213;28;20213;-70
2023/07/20 11:56:30;;;;;;;1.40;1.40;;;;;;;;;;4996097;28;20654;-68
2023/07/20 11:59:44;;;;;;;0.82;0.82;;;;;;;;;;4995983;28;20198;-69
2023/07/20 12:02:11;;;;;;;1.35;1.15;;;;;;;;;;4995930;28;20218;-70
2023/07/20 12:04:52;;;;;;;1.15;1.10;;;;;;;;;;4995966;28;20206;-71
2023/07/20 12:07:19;;;;;;;1.98;1.27;;;;;;;;;;4995946;28;20209;-69
2023/07/20 12:10:30;;;;;;;1.30;1.23;;;;;;;;;;4995953;28;20198;-68
2023/07/20 12:13:45;;;;;;;1.10;1.10;;;;;;;;;;4995708;28;20198;-68
2023/07/20 12:16:55;;;;;;;1.15;1.05;;;;;;;;;;4995647;28;20222;-68
2023/07/20 12:20:05;;;;;;;1.20;1.20;;;;;;;;;;4994778;28;20213;-68
2023/07/20 12:23:22;;;;;;;1.10;1.10;;;;;;;;;;4995562;28;20198;-69
2023/07/20 12:26:33;;;;;;;1.10;1.10;;;;;;;;;;4995357;28;20598;-69
2023/07/20 12:29:43;;;;;;;1.10;1.10;;;;;;;;;;4995365;28;20205;-69
2023/07/20 12:32:54;;;;;;;1.08;1.08;;;;;;;;;;4995277;28;20210;-69
2023/07/20 12:36:04;;;;;;;1.10;1.00;;;;;;;;;;4995637;28;20222;-69
2023/07/20 12:39:17;;;;;;;1.27;1.17;;;;;;;;;;4996366;28;20269;-69
2023/07/20 12:41:44;;;;;;;2.15;1.38;;;;;;;;;;4995388;28;20577;-69
2023/07/20 12:44:54;;;;;;;0.80;0.80;;;;;;;;;;4995278;28;20203;-69
2023/07/20 12:48:05;;;;;;;0.90;0.90;;;;;;;;;;4935458;28;20672;-69
2023/07/20 12:51:18;;;;;;;1.60;1.30;;;;;;;;;;4937200;29;20235;-69
2023/07/20 12:53:47;;;;;;;2.22;1.08;;;;;;;;;;4937334;29;20207;-69
2023/07/20 12:56:14;;;;;;;1.20;1.20;;;;;;;;;;4936985;29;20228;-69
2023/07/20 12:58:41;;;;;;;1.10;1.10;;;;;;;;;;4936938;29;20231;-70
2023/07/20 13:01:08;;;;;;;0.95;0.90;;;;;;;;;;4936806;29;20668;-70
2023/07/20 13:03:35;;;;;;;3.67;0.98;;;;;;;;;;4936978;29;20204;-68
2023/07/20 13:06:11;;;;;;;1.27;1.27;;;;;;;;;;4936832;29;20231;-68
2023/07/20 13:08:38;;;;;;;1.13;1.13;;;;;;;;;;4936848;29;20188;-69
2023/07/20 13:11:07;;;;;;;1.13;1.00;;;;;;;;;;4936535;29;20723;-68
2023/07/20 13:13:34;;;;;;;2.63;1.20;;;;;;;;;;4936852;29;20663;-68
2023/07/20 13:16:01;;;;;;;1.00;1.00;;;;;;;;;;4936898;29;20235;-68
2023/07/20 13:18:29;;;;;;;1.38;1.27;;;;;;;;;;4936978;29;20215;-68
2023/07/20 13:20:56;;;;;;;0.90;0.90;;;;;;;;;;4936980;29;20200;-69
2023/07/20 13:24:05;;;;;;;1.10;1.10;;;;;;;;;;4936785;29;20668;-69
2023/07/20 13:26:34;;;;;;;0.80;0.80;;;;;;;;;;4936185;29;20256;-68
2023/07/20 13:29:01;;;;;;;2.38;1.20;;;;;;;;;;4935946;29;20688;-69
2023/07/20 13:31:28;;;;;;;2.08;1.10;;;;;;;;;;4936563;29;20226;-69
2023/07/20 13:33:56;;;;;;;1.08;1.08;;;;;;;;;;4936462;29;20664;-69
2023/07/20 13:36:28;;;;;;;0.90;0.90;;;;;;;;;;4936410;29;20594;-69
2023/07/20 13:38:55;;;;;;;0.90;0.90;;;;;;;;;;4936440;29;20537;-68
2023/07/20 13:41:22;;;;;;;0.90;0.90;;;;;;;;;;4936397;29;20200;-68
2023/07/20 13:43:58;;;;;;;0.90;0.90;;;;;;;;;;4935999;29;20647;-68
2023/07/20 13:46:36;;;;;;;0.80;0.80;;;;;;;;;;4936234;29;20235;-68
2023/07/20 13:49:47;;;;;;;0.90;0.90;;;;;;;;;;4936354;29;20195;-68
2023/07/20 13:52:14;;;;;;;0.77;0.77;;;;;;;;;;4936345;29;20212;-69
2023/07/20 13:54:41;;;;;;;0.98;0.98;;;;;;;;;;4936204;29;20234;-69
2023/07/20 13:57:14;;;;;;;0.77;0.77;;;;;;;;;;4936336;29;20204;-69
2023/07/20 13:59:50;;;;;;;0.80;0.80;;;;;;;;;;4936339;29;20196;-69
2023/07/20 14:02:17;;;;;;;1.00;1.00;;;;;;;;;;4936026;29;20536;-69
2023/07/20 14:04:50;;;;;;;0.95;0.85;;;;;;;;;;4936191;29;20207;-69
2023/07/20 14:07:28;;;;;;;0.90;0.90;;;;;;;;;;4935915;29;20619;-69
2023/07/20 14:10:37;;;;;;;1.10;1.10;;;;;;;;;;4936217;29;20192;-69
2023/07/20 14:13:48;;;;;;;2.33;1.10;;;;;;;;;;4936165;29;20219;-69
2023/07/20 14:16:26;;;;;;;1.45;1.40;;;;;;;;;;4936028;29;20224;-69
2023/07/20 14:18:53;;;;;;;1.48;1.15;;;;;;;;;;4935865;29;20535;-70
2023/07/20 14:21:21;;;;;;;3.15;1.20;;;;;;;;;;4935922;29;20566;-70
2023/07/20 14:23:49;;;;;;;1.10;1.10;;;;;;;;;;4935787;29;20669;-70
2023/07/20 14:26:16;;;;;;;1.20;1.20;;;;;;;;;;4935963;29;20228;-70
2023/07/20 14:28:43;;;;;;;1.27;1.20;;;;;;;;;;4936120;29;20207;-71
2023/07/20 14:31:10;;;;;;;1.30;1.23;;;;;;;;;;4935923;29;20212;-71
2023/07/20 14:33:39;;;;;;;0.98;0.98;;;;;;;;;;4935883;29;20228;-71
2023/07/20 14:36:06;;;;;;;0.90;0.90;;;;;;;;;;4935894;29;20227;-71
2023/07/20 14:38:33;;;;;;;1.40;1.15;;;;;;;;;;4935918;29;20212;-71
2023/07/20 14:41:00;;;;;;;1.08;1.08;;;;;;;;;;4936071;29;20298;-71
2023/07/20 14:43:27;;;;;;;1.25;1.25;;;;;;;;;;4939309;29;20668;-71
2023/07/20 14:45:55;;;;;;;1.15;1.15;;;;;;;;;;4939168;29;20607;-71
2023/07/20 14:48:22;;;;;;;1.27;1.17;;;;;;;;;;4939894;29;20204;-71
2023/07/20 14:50:50;;;;;;;1.30;1.20;;;;;;;;;;4939020;29;20208;-72
2023/07/20 14:53:17;;;;;;;1.42;1.33;;;;;;;;;;4939795;29;20212;-68
2023/07/20 14:55:44;;;;;;;3.80;1.25;;;;;;;;;;4939184;29;20236;-70
2023/07/20 14:58:11;;;;;;;1.10;1.10;;;;;;;;;;4939138;29;20215;-73
2023/07/20 15:00:39;;;;;;;1.05;1.00;;;;;;;;;;4940329;29;20193;-72
2023/07/20 15:03:06;;;;;;;1.20;1.20;;;;;;;;;;4943739;29;20208;-72
2023/07/20 15:05:34;;;;;;;1.20;1.20;;;;;;;;;;4943735;29;20220;-72
2023/07/20 15:08:03;;;;;;;1.20;1.20;;;;;;;;;;4944855;29;20210;-71
2023/07/20 15:10:30;;;;;;;0.82;0.82;;;;;;;;;;4944118;29;20200;-72
2023/07/20 15:12:57;;;;;;;0.73;0.73;;;;;;;;;;4941923;29;20204;-72
2023/07/20 15:15:24;;;;;;;1.65;1.17;;;;;;;;;;4939328;29;20239;-72
2023/07/20 15:17:51;;;;;;;1.40;1.40;;;;;;;;;;4938841;29;20208;-70
2023/07/20 15:20:18;;;;;;;1.85;1.75;;;;;;;;;;4938810;29;20211;-71
2023/07/20 15:22:45;;;;;;;1.73;1.65;;;;;;;;;;4938774;29;20208;-73
2023/07/20 15:25:13;;;;;;;1.50;1.40;;;;;;;;;;4938523;29;20707;-73
2023/07/20 15:27:42;;;;;;;1.15;1.15;;;;;;;;;;4938688;29;20201;-73
2023/07/20 15:30:10;;;;;;;2.83;1.45;;;;;;;;;;4938606;29;20235;-72
2023/07/20 15:32:37;;;;;;;1.05;1.05;;;;;;;;;;4938770;29;20208;-73
2023/07/20 15:35:06;;;;;;;1.08;1.08;;;;;;;;;;4938541;29;20232;-74
2023/07/20 15:37:33;;;;;;;1.02;1.00;;;;;;;;;;4938630;29;20204;-70
2023/07/20 15:40:03;;;;;;;1.13;1.13;;;;;;;;;;4938577;29;20210;-71
2023/07/20 15:42:31;;;;;;;1.45;1.35;;;;;;;;;;4938295;29;20246;-69
2023/07/20 15:44:58;;;;;;;1.13;1.10;;;;;;;;;;4938162;29;20259;-72
2023/07/20 15:47:25;;;;;;;1.20;1.20;;;;;;;;;;4938448;29;20200;-71
2023/07/20 15:49:52;;;;;;;1.40;1.30;;;;;;;;;;4938197;29;20211;-71
2023/07/20 15:52:19;;;;;;;1.27;1.02;;;;;;;;;;4938133;29;20204;-71
2023/07/20 15:54:46;;;;;;;1.30;1.20;;;;;;;;;;4937675;29;20594;-71
2023/07/20 15:57:13;;;;;;;4.85;1.40;;;;;;;;;;4938146;29;20207;-71
2023/07/20 15:59:42;;;;;;;1.73;1.63;;;;;;;;;;4938088;29;20200;-72
2023/07/20 16:02:09;;;;;;;1.35;1.25;;;;;;;;;;4938179;29;20208;-72
2023/07/20 16:04:36;;;;;;;2.28;1.40;;;;;;;;;;4937999;29;20561;-70
2023/07/20 16:07:03;;;;;;;1.67;1.50;;;;;;;;;;4937972;29;20208;-71
2023/07/20 16:09:30;;;;;;;2.05;1.40;;;;;;;;;;4937918;29;20205;-71
2023/07/20 16:11:58;;;;;;;1.23;1.20;;;;;;;;;;4938099;29;20208;-71
2023/07/20 16:14:25;;;;;;;2.97;1.30;;;;;;;;;;4937772;29;20723;-71
2023/07/20 16:16:53;;;;;;;1.33;1.30;;;;;;;;;;4937391;29;20737;-71
2023/07/20 16:19:20;;;;;;;3.67;1.25;;;;;;;;;;4937657;29;20291;-71
2023/07/20 16:21:47;;;;;;;1.42;1.33;;;;;;;;;;4937687;29;20591;-71
2023/07/20 16:24:16;;;;;;;1.25;1.25;;;;;;;;;;4937695;29;20207;-70
2023/07/20 16:26:43;;;;;;;1.55;1.45;;;;;;;;;;4937620;29;20309;-71
2023/07/20 16:29:10;;;;;;;1.38;1.15;;;;;;;;;;4937630;29;20211;-70
2023/07/20 16:31:38;;;;;;;1.65;1.55;;;;;;;;;;4937710;29;20263;-72
2023/07/20 16:34:06;;;;;;;1.20;1.20;;;;;;;;;;4937797;29;20260;-71
2023/07/20 16:36:35;;;;;;;1.52;1.48;;;;;;;;;;4937904;29;20220;-70
2023/07/20 16:39:03;;;;;;;1.08;1.08;;;;;;;;;;4937742;29;20204;-71
2023/07/20 16:41:30;;;;;;;1.52;1.50;;;;;;;;;;4937663;29;20208;-72
2023/07/20 16:43:57;;;;;;;2.40;1.48;;;;;;;;;;4943913;29;20209;-72
2023/07/20 16:46:25;;;;;;;1.60;1.50;;;;;;;;;;4955226;29;20605;-71
2023/07/20 16:48:52;;;;;;;2.22;1.40;;;;;;;;;;4953390;29;20272;-70
2023/07/20 16:51:20;;;;;;;1.33;1.23;;;;;;;;;;4949591;29;20215;-70
2023/07/20 16:53:49;;;;;;;1.65;1.55;;;;;;;;;;4937136;29;20291;-71
2023/07/20 16:56:16;;;;;;;1.50;1.50;;;;;;;;;;4936632;29;20220;-70
2023/07/20 16:58:44;;;;;;;1.42;1.33;;;;;;;;;;4936546;29;20215;-70
2023/07/20 17:01:11;;;;;;;1.27;1.27;;;;;;;;;;4936823;29;20200;-69
2023/07/20 17:03:38;;;;;;;1.77;1.50;;;;;;;;;;4936897;29;20211;-71
2023/07/20 17:06:07;;;;;;;1.20;1.10;;;;;;;;;;4936773;29;20256;-69
2023/07/20 17:08:35;;;;;;;1.90;1.75;;;;;;;;;;4936480;29;20579;-69
2023/07/20 17:11:02;;;;;;;1.35;1.25;;;;;;;;;;4936451;29;20600;-71
2023/07/20 17:14:12;;;;;;;1.20;1.20;;;;;;;;;;4937580;29;20215;-72
2023/07/20 17:17:21;;;;;;;1.40;1.33;;;;;;;;;;4937511;29;20275;-71
2023/07/20 17:20:33;;;;;;;1.25;1.25;;;;;;;;;;4936559;29;20571;-71
2023/07/20 17:23:44;;;;;;;3.05;1.55;;;;;;;;;;4936427;29;20208;-72
2023/07/20 17:26:58;;;;;;;2.83;1.55;;;;;;;;;;4936529;29;20235;-72
2023/07/20 17:30:11;;;;;;;1.63;1.52;;;;;;;;;;4936550;29;20200;-72
2023/07/20 17:32:51;;;;;;;1.33;1.23;;;;;;;;;;4936542;29;20215;-71
2023/07/20 17:35:20;;;;;;;1.08;1.08;;;;;;;;;;4936527;29;20700;-72
2023/07/20 17:37:48;;;;;;;1.17;1.17;;;;;;;;;;4937045;29;20239;-70
2023/07/20 17:40:18;;;;;;;1.20;1.20;;;;;;;;;;4937210;29;20230;-71
2023/07/20 17:42:48;;;;;;;1.15;1.15;;;;;;;;;;4937006;29;20227;-73
2023/07/20 17:45:17;;;;;;;1.00;1.00;;;;;;;;;;4936567;29;20232;-73
2023/07/20 17:47:44;;;;;;;0.90;0.90;;;;;;;;;;4937078;29;20184;-73
2023/07/20 17:50:11;;;;;;;1.10;1.10;;;;;;;;;;4936907;29;20212;-72
2023/07/20 17:52:39;;;;;;;1.27;1.27;;;;;;;;;;4937612;29;20242;-72
2023/07/20 17:55:06;;;;;;;1.25;1.25;;;;;;;;;;4939474;29;20228;-74
2023/07/20 17:57:34;;;;;;;1.05;1.05;;;;;;;;;;4936276;29;20204;-73
2023/07/20 18:00:03;;;;;;;0.95;0.95;;;;;;;;;;4936172;29;20595;-73
2023/07/20 18:02:30;;;;;;;1.05;1.05;;;;;;;;;;4935863;29;20706;-73
2023/07/20 18:04:57;;;;;;;0.90;0.90;;;;;;;;;;4937136;29;20220;-72
2023/07/20 18:07:24;;;;;;;1.02;1.02;;;;;;;;;;4936136;29;20611;-72
2023/07/20 18:09:52;;;;;;;1.10;1.10;;;;;;;;;;4936427;29;20197;-74
2023/07/20 18:12:19;;;;;;;1.20;1.20;;;;;;;;;;4936292;29;20219;-73
2023/07/20 18:14:46;;;;;;;1.25;1.25;;;;;;;;;;4936168;29;20275;-73
2023/07/20 18:17:14;;;;;;;1.15;1.15;;;;;;;;;;4938288;29;20212;-73
2023/07/20 18:19:42;;;;;;;1.58;1.58;;;;;;;;;;4939844;29;20228;-73
2023/07/20 18:22:09;;;;;;;1.45;1.45;;;;;;;;;;4940165;29;20208;-74
2023/07/20 18:24:36;;;;;;;1.50;1.40;;;;;;;;;;4939561;29;20220;-74
2023/07/20 18:27:04;;;;;;;1.20;1.20;;;;;;;;;;4939897;29;20196;-73
2023/07/20 18:29:31;;;;;;;1.35;1.35;;;;;;;;;;4939693;29;20571;-73
2023/07/20 18:31:58;;;;;;;1.25;1.25;;;;;;;;;;4939610;29;20208;-74
2023/07/20 18:34:26;;;;;;;1.38;1.38;;;;;;;;;;4939494;29;20208;-74
2023/07/20 18:36:53;;;;;;;1.17;1.13;;;;;;;;;;4939789;29;20201;-73
2023/07/20 18:39:20;;;;;;;1.20;1.20;;;;;;;;;;4939775;29;20231;-73
2023/07/20 18:41:53;;;;;;;1.00;1.00;;;;;;;;;;4939734;29;20211;-73
2023/07/20 18:44:21;;;;;;;1.10;1.10;;;;;;;;;;4939876;29;20250;-73
2023/07/20 18:46:49;;;;;;;1.23;1.23;;;;;;;;;;4939630;29;20723;-71
2023/07/20 18:49:17;;;;;;;0.90;0.90;;;;;;;;;;4939492;29;20211;-72
2023/07/20 18:51:48;;;;;;;1.17;1.17;;;;;;;;;;4940235;29;20204;-73
2023/07/20 18:54:17;;;;;;;1.52;1.42;;;;;;;;;;4945961;29;20208;-72
2023/07/20 18:56:46;;;;;;;1.20;1.20;;;;;;;;;;4941039;29;20302;-73
2023/07/20 18:59:25;;;;;;;1.52;1.20;;;;;;;;;;4939457;29;20232;-73
2023/07/20 19:01:53;;;;;;;1.42;1.33;;;;;;;;;;4939674;29;20199;-72
2023/07/20 19:04:21;;;;;;;1.13;1.13;;;;;;;;;;4939783;29;20204;-71
2023/07/20 19:06:50;;;;;;;1.00;1.00;;;;;;;;;;4939297;29;20266;-72
2023/07/20 19:09:17;;;;;;;1.33;1.30;;;;;;;;;;4939747;29;20211;-69
2023/07/20 19:11:44;;;;;;;1.08;1.08;;;;;;;;;;4939217;29;20292;-73
2023/07/20 19:14:12;;;;;;;1.50;1.50;;;;;;;;;;4938974;29;20255;-73
2023/07/20 19:16:40;;;;;;;1.30;1.30;;;;;;;;;;4938780;29;20235;-73
2023/07/20 19:19:08;;;;;;;1.10;1.10;;;;;;;;;;4938751;29;20687;-72
2023/07/20 19:21:38;;;;;;;1.30;1.30;;;;;;;;;;4938820;29;20200;-73
2023/07/20 19:24:07;;;;;;;1.20;1.20;;;;;;;;;;4938593;29;20211;-71
2023/07/20 19:26:34;;;;;;;2.20;1.38;;;;;;;;;;4938309;29;20236;-72
2023/07/20 19:29:01;;;;;;;1.27;1.20;;;;;;;;;;4938609;29;20213;-73
2023/07/20 19:31:28;;;;;;;1.17;1.08;;;;;;;;;;4938445;29;20676;-73
2023/07/20 19:33:56;;;;;;;1.13;1.13;;;;;;;;;;4938594;29;20695;-73
2023/07/20 19:36:26;;;;;;;1.20;1.20;;;;;;;;;;4938219;29;20711;-72
2023/07/20 19:38:53;;;;;;;0.93;0.93;;;;;;;;;;4938753;29;20211;-72
2023/07/20 19:41:23;;;;;;;1.17;1.17;;;;;;;;;;4938492;29;20319;-73
2023/07/20 19:43:51;;;;;;;1.20;1.20;;;;;;;;;;4938569;29;20216;-72
2023/07/20 19:46:19;;;;;;;1.23;1.20;;;;;;;;;;4938244;29;20739;-72